Quick Links (Output Below):   Max & Min Temps   /   Climate Reports   /   Zone Forecasts
River Forecasts   /   Forestry Forecasts   /   Aviation Forecasts   /   Radars   /   Features

Terminal Aerodrome Forecast (Texarkana)

Pick a Site:
Arkadelphia | El Dorado | Fayetteville | Fort Smith | Harrison | Highfill | Hot Springs | Jonesboro
Little Rock | Monticello | Mountain Home | Pine Bluff | Texarkana
 Forecast 

KTXK 202339Z 2100/2124 VRB03KT P6SM BKN040
      TEMPO 2110/2114 4SM BR SCT040
     FM211400 VRB03KT 5SM BR SCT035 SCT250
     FM211600 12004KT P6SM FEW035 SCT250=


 Latest METARs (Observations) 
How to Decode METARs
03Z KTXK 210253Z AUTO 00000KT 7SM OVC036 05/04 A3021 RMK AO2 SLP232
         T00500044 50004
         
02Z KTXK 210153Z 00000KT 8SM SCT038 06/04 A3022 RMK AO2 SLP233
         T00610044
         
01Z KTXK 210053Z 03004KT 10SM CLR 07/05 A3021 RMK AO2 SLP229
         T00720050
         
00Z KTXK 202353Z 35004KT 10SM OVC038 09/05 A3020 RMK AO2 SLP227
         T00890050 10106 20078 50002
         
***** Today's Observations (Above) *****


23Z KTXK 202253Z 35005KT 9SM OVC040 10/06 A3020 RMK AO2 SLP227
         T01000056
         
22Z KTXK 202153Z 36003KT 8SM OVC039 10/06 A3020 RMK AO2 SLP226
         T01000056
         
21Z KTXK 202053Z AUTO 35003KT 8SM OVC038 10/06 A3020 RMK AO2 SLP225
         T01000056 55015
         
20Z KTXK 201953Z AUTO 03005KT 8SM OVC039 10/06 A3020 RMK AO2 SLP224
         T01000056
         
19Z KTXK 201853Z AUTO 00000KT 8SM OVC039 09/05 A3021 RMK AO2 SLP231
         T00890050
         
18Z KTXK 201753Z AUTO 00000KT 7SM OVC037 08/04 A3024 RMK AO2 SLP241
         T00780044 10078 20056 58009
         
***** Yesterday's Observations (Above) *****


Back to Main Page
http://www.srh.noaa.gov/lzk/qfcst.php

USA.gov is the U.S. government's official web portal to all federal, state and local government web resources and services.